Time;durP1;ratioP1;P1;durP2;ratioP2;P2;SDS_P1;SDS_P2;PMS_P1;PMS_P2;Temp;Humidity;BMP_temperature;BMP_pressure;BME280_temperature;BME280_humidity;BME280_pressure;Samples;Min_cycle;Max_cycle;Signal;HPM_P1;HPM_P2
2021/07/09 00:02:00;;;;;;;;;6.00;5.00;;;;;23.78;44.08;101789.72;5099290;27;45267;-56
2021/07/09 00:04:26;;;;;;;;;5.50;5.50;;;;;23.82;43.95;101797.50;5098586;27;45315;-57
2021/07/09 00:06:52;;;;;;;;;6.00;6.00;;;;;23.77;44.30;101785.34;5098758;27;45408;-58
2021/07/09 00:09:18;;;;;;;;;5.25;5.25;;;;;23.81;44.17;101794.00;5098975;27;45396;-59
2021/07/09 00:11:46;;;;;;;;;4.50;4.50;;;;;23.82;44.42;101800.13;5098834;27;45590;-57
2021/07/09 00:14:13;;;;;;;;;6.00;6.00;;;;;23.78;44.41;101794.16;5097287;27;46537;-57
2021/07/09 00:16:41;;;;;;;;;6.25;6.00;;;;;23.80;44.24;101794.06;5098502;27;45824;-58
2021/07/09 00:19:07;;;;;;;;;3.75;3.75;;;;;23.81;44.16;101803.72;5098662;27;45291;-56
2021/07/09 00:21:33;;;;;;;;;6.00;4.50;;;;;23.80;44.34;101797.59;5097634;27;45496;-57
2021/07/09 00:24:00;;;;;;;;;5.25;5.25;;;;;23.79;44.57;101801.16;5098382;27;45395;-56
2021/07/09 00:26:27;;;;;;;;;5.00;5.00;;;;;23.79;44.28;101795.88;5098602;27;45312;-58
2021/07/09 00:28:53;;;;;;;;;7.00;5.00;;;;;23.78;44.55;101796.81;5098573;27;45400;-58
2021/07/09 00:31:18;;;;;;;;;5.75;4.75;;;;;23.80;44.65;101791.41;5098473;27;45627;-58
2021/07/09 00:33:43;;;;;;;;;4.25;4.25;;;;;23.78;44.53;101794.16;5098363;27;45288;-58
2021/07/09 00:36:09;;;;;;;;;5.00;5.00;;;;;23.78;44.79;101788.88;5098359;27;45801;-58
2021/07/09 00:38:35;;;;;;;;;5.00;4.75;;;;;23.77;44.93;101788.00;5098247;27;45463;-58
2021/07/09 00:41:00;;;;;;;;;4.00;4.00;;;;;23.77;44.83;101789.81;5098491;27;45554;-57
2021/07/09 00:43:26;;;;;;;;;6.00;5.75;;;;;23.77;44.71;101787.16;5098566;27;45665;-57
2021/07/09 00:45:52;;;;;;;;;4.25;4.25;;;;;23.76;44.87;101794.22;5098219;27;45278;-58
2021/07/09 00:48:17;;;;;;;;;5.25;5.25;;;;;23.75;44.97;101789.03;5098305;27;45570;-56
2021/07/09 00:50:43;;;;;;;;;7.00;6.00;;;;;23.76;44.94;101796.88;5098226;27;45554;-48
2021/07/09 00:53:08;;;;;;;;;6.00;6.00;;;;;23.76;44.74;101796.03;5097860;27;46099;-49
2021/07/09 00:55:34;;;;;;;;;6.00;5.75;;;;;23.72;44.93;101790.06;5097829;27;45338;-52
2021/07/09 00:58:00;;;;;;;;;8.00;6.75;;;;;23.76;44.96;101802.16;5098241;27;45377;-48
2021/07/09 01:00:28;;;;;;;;;5.75;5.00;;;;;23.75;44.84;101800.50;5097303;27;45542;-55
2021/07/09 01:02:54;;;;;;;;;4.75;4.50;;;;;23.74;45.00;101796.13;5097839;27;48320;-53
2021/07/09 01:05:19;;;;;;;;;5.50;5.50;;;;;23.74;45.30;101809.38;5097904;27;45803;-49
2021/07/09 01:07:45;;;;;;;;;5.50;5.50;;;;;23.75;45.11;101811.06;5098035;27;45685;-51
2021/07/09 01:10:16;;;;;;;;;5.00;5.00;;;;;23.74;45.03;101809.38;5098094;27;45215;-49
2021/07/09 01:12:43;;;;;;;;;6.00;6.00;;;;;23.74;44.77;101809.38;5097374;27;45395;-48
2021/07/09 01:15:11;;;;;;;;;6.00;6.00;;;;;23.73;44.90;101807.66;5095988;27;46121;-48
2021/07/09 01:17:37;;;;;;;;;8.75;8.25;;;;;23.74;44.82;101803.19;5097264;27;45347;-51
2021/07/09 01:20:06;;;;;;;;;4.75;4.75;;;;;23.74;44.79;101803.19;5097831;27;45554;-54
2021/07/09 01:22:31;;;;;;;;;7.00;5.25;;;;;23.73;45.10;101804.13;5097368;27;46323;-51
2021/07/09 01:24:57;;;;;;;;;6.50;6.50;;;;;23.72;45.31;101811.22;5097766;27;45343;-52
2021/07/09 01:27:23;;;;;;;;;6.75;5.00;;;;;23.73;45.12;101809.44;5097549;27;45238;-50
2021/07/09 01:29:48;;;;;;;;;5.25;5.25;;;;;23.73;44.98;101812.94;5130952;27;45277;-48
2021/07/09 01:32:13;;;;;;;;;8.50;5.50;;;;;23.72;44.97;101810.34;5097198;27;45597;-51
2021/07/09 01:34:40;;;;;;;;;6.00;6.00;;;;;23.72;45.08;101813.88;5097342;27;45311;-51
2021/07/09 01:37:14;;;;;;;;;4.00;4.00;;;;;23.72;44.83;101820.94;5097421;27;45437;-48
2021/07/09 01:39:40;;;;;;;;;8.25;7.00;;;;;23.70;44.79;101806.97;5097454;27;45382;-48
2021/07/09 01:42:06;;;;;;;;;6.00;6.00;;;;;23.70;45.27;101807.81;5097212;27;46019;-50
2021/07/09 01:44:33;;;;;;;;;6.25;5.50;;;;;23.69;45.03;101806.09;5097570;27;45464;-51
2021/07/09 01:46:59;;;;;;;;;7.25;6.50;;;;;23.70;45.11;101813.09;5097490;27;45383;-49
2021/07/09 01:49:24;;;;;;;;;6.50;6.50;;;;;23.69;45.04;101800.81;5097542;27;45345;-52
2021/07/09 01:51:50;;;;;;;;;6.25;6.25;;;;;23.70;45.12;101807.81;5096917;27;46040;-48
2021/07/09 01:54:16;;;;;;;;;6.50;6.00;;;;;23.69;44.97;101800.81;5097150;27;45393;-52
2021/07/09 01:56:42;;;;;;;;;6.75;6.75;;;;;23.69;45.18;101803.44;5097339;27;45856;-48
2021/07/09 01:59:07;;;;;;;;;10.25;6.25;;;;;23.69;44.74;101798.16;5097428;27;45392;-48
2021/07/09 02:01:32;;;;;;;;;8.25;7.00;;;;;23.70;45.32;101807.81;5097214;27;45276;-50
2021/07/09 02:03:58;;;;;;;;;7.25;7.25;;;;;23.70;45.14;101794.56;5097118;27;45319;-51
2021/07/09 02:06:23;;;;;;;;;7.25;7.25;;;;;23.69;44.87;101790.22;5096978;27;45422;-48
2021/07/09 02:08:48;;;;;;;;;7.75;6.25;;;;;23.70;44.90;101801.66;5097083;27;45514;-48
2021/07/09 02:11:14;;;;;;;;;7.75;7.75;;;;;23.68;45.22;101798.25;5096293;27;59269;-49
2021/07/09 02:13:39;;;;;;;;;5.00;5.00;;;;;23.68;45.44;101804.38;5096693;27;45386;-49
2021/07/09 02:16:05;;;;;;;;;6.50;6.00;;;;;23.66;45.20;101790.38;5097021;27;45275;-48
2021/07/09 02:18:30;;;;;;;;;7.50;7.25;;;;;23.68;45.31;101800.91;5097561;27;45228;-49
2021/07/09 02:20:58;;;;;;;;;6.00;6.00;;;;;23.68;45.46;101792.94;5096691;27;45455;-50
2021/07/09 02:23:24;;;;;;;;;6.50;6.50;;;;;23.67;45.32;101793.88;5096736;27;46001;-53
2021/07/09 02:25:49;;;;;;;;;6.25;5.75;;;;;23.67;45.39;101785.94;5096800;27;45471;-48
2021/07/09 02:28:15;;;;;;;;;6.25;6.25;;;;;23.67;45.35;101792.09;5099584;27;45464;-54
2021/07/09 02:30:40;;;;;;;;;6.50;5.00;;;;;23.67;45.41;101793.88;5100113;27;46339;-56
2021/07/09 02:33:07;;;;;;;;;6.25;6.25;;;;;23.65;45.53;101793.94;5100290;27;45358;-57
2021/07/09 02:35:35;;;;;;;;;9.50;7.75;;;;;23.66;45.65;101786.88;5133541;27;45342;-55
2021/07/09 02:38:01;;;;;;;;;5.25;5.25;;;;;23.63;45.43;101788.75;5100627;27;45219;-52
2021/07/09 02:40:29;;;;;;;;;5.00;5.00;;;;;23.64;45.17;101789.63;5100128;27;46219;-55
2021/07/09 02:42:57;;;;;;;;;8.25;6.75;;;;;23.61;45.44;101779.19;5100078;27;45344;-57
2021/07/09 02:45:23;;;;;;;;;6.25;6.25;;;;;23.62;45.16;101772.97;5100106;27;45230;-57
2021/07/09 02:47:50;;;;;;;;;6.75;6.25;;;;;23.63;45.58;101791.41;5100258;27;45614;-52
2021/07/09 02:50:21;;;;;;;;;6.75;6.75;;;;;23.63;45.74;101786.09;5099850;27;45303;-57
2021/07/09 02:52:47;;;;;;;;;7.00;6.00;;;;;23.62;45.25;101784.38;5100074;27;45432;-53
2021/07/09 02:55:13;;;;;;;;;9.50;7.75;;;;;23.60;45.56;101774.84;5099991;27;45416;-57
2021/07/09 02:57:41;;;;;;;;;6.50;5.25;;;;;23.61;45.25;101782.69;5100210;27;45352;-57
2021/07/09 03:00:09;;;;;;;;;5.25;4.25;;;;;23.60;45.49;101774.84;5099687;27;46260;-49
2021/07/09 03:02:35;;;;;;;;;8.50;8.00;;;;;23.60;45.61;101780.97;5100050;27;45707;-51
2021/07/09 03:05:01;;;;;;;;;9.75;8.00;;;;;23.61;45.24;101781.84;5099833;27;45463;-51
2021/07/09 03:07:27;;;;;;;;;9.00;7.25;;;;;23.60;45.61;101777.47;5100020;27;45322;-48
2021/07/09 03:09:52;;;;;;;;;5.75;5.75;;;;;23.61;45.82;101781.84;5099756;27;45937;-51
2021/07/09 03:12:17;;;;;;;;;7.25;7.00;;;;;23.61;45.61;101779.19;5099722;27;45318;-52
2021/07/09 03:14:43;;;;;;;;;5.00;5.00;;;;;23.62;45.53;101773.81;5099774;27;45242;-50
2021/07/09 03:17:08;;;;;;;;;6.00;6.00;;;;;23.62;45.47;101772.97;5099840;27;45412;-51
2021/07/09 03:19:33;;;;;;;;;7.00;7.00;;;;;23.60;45.46;101769.53;5098431;27;48397;-51
2021/07/09 03:21:59;;;;;;;;;6.25;6.25;;;;;23.59;45.72;101765.19;5099424;27;45238;-54
2021/07/09 03:24:25;;;;;;;;;8.00;6.50;;;;;23.54;45.79;101753.97;5099624;27;45291;-51
2021/07/09 03:26:50;;;;;;;;;7.25;7.25;;;;;23.60;45.73;101770.38;5099683;27;45267;-50
2021/07/09 03:29:15;;;;;;;;;7.25;6.25;;;;;23.56;45.43;101763.56;5132428;27;46105;-50
2021/07/09 03:31:41;;;;;;;;;5.50;5.25;;;;;23.59;45.81;101767.81;5099329;27;45366;-52
2021/07/09 03:34:06;;;;;;;;;6.00;6.00;;;;;23.58;46.00;101759.06;5099887;27;45435;-55
2021/07/09 03:36:31;;;;;;;;;9.75;8.75;;;;;23.57;45.40;101764.41;5099680;27;45400;-57
2021/07/09 03:38:58;;;;;;;;;4.75;4.75;;;;;23.58;45.72;101760.81;5098110;27;46007;-56
2021/07/09 03:41:24;;;;;;;;;5.00;5.00;;;;;23.56;45.71;101757.41;5099279;27;45819;-55
2021/07/09 03:43:50;;;;;;;;;6.75;6.25;;;;;23.57;45.42;101769.69;5099321;27;45447;-56
2021/07/09 03:46:15;;;;;;;;;6.50;6.50;;;;;23.57;45.84;101765.28;5099185;27;45494;-57
2021/07/09 03:48:41;;;;;;;;;6.00;5.25;;;;;23.56;45.59;101765.34;5132283;27;46203;-52
2021/07/09 03:51:07;;;;;;;;;6.75;6.75;;;;;23.57;45.64;101772.34;5099137;27;45339;-48
2021/07/09 03:53:33;;;;;;;;;10.75;6.00;;;;;23.56;45.71;101768.84;5099226;27;45353;-48
2021/07/09 03:55:59;;;;;;;;;8.50;6.00;;;;;23.56;45.82;101770.63;5099210;27;45341;-51
2021/07/09 03:58:24;;;;;;;;;7.00;7.00;;;;;23.55;45.72;101775.09;5098823;27;46132;-54
2021/07/09 04:00:50;;;;;;;;;8.25;6.25;;;;;23.54;45.93;101769.84;5098893;27;45338;-49
2021/07/09 04:03:15;;;;;;;;;5.00;5.00;;;;;23.54;46.07;101767.22;5098975;27;45185;-56
2021/07/09 04:05:41;;;;;;;;;5.25;5.25;;;;;23.55;45.84;101774.22;5097667;27;45293;-53
2021/07/09 04:08:06;;;;;;;;;6.00;6.00;;;;;23.53;45.85;101771.66;5098962;27;47303;-55
2021/07/09 04:10:32;;;;;;;;;7.50;6.75;;;;;23.52;45.93;101772.59;5098633;27;45337;-50
2021/07/09 04:12:57;;;;;;;;;6.00;6.00;;;;;23.53;45.91;101769.00;5098790;27;45251;-54
2021/07/09 04:15:23;;;;;;;;;7.00;5.25;;;;;23.52;45.97;101772.59;5098893;27;45471;-56
2021/07/09 04:17:48;;;;;;;;;8.50;6.50;;;;;23.53;45.68;101773.47;5097161;27;48376;-57
2021/07/09 04:20:14;;;;;;;;;8.00;7.00;;;;;23.51;46.07;101767.41;5098627;27;45260;-49
2021/07/09 04:22:39;;;;;;;;;10.00;7.50;;;;;23.52;45.92;101771.75;5097627;27;45445;-51
2021/07/09 04:25:08;;;;;;;;;7.50;6.00;;;;;23.52;46.05;101766.47;5097546;27;45275;-56
2021/07/09 04:27:34;;;;;;;;;7.25;7.25;;;;;23.52;46.15;101766.47;5098215;27;46908;-52
2021/07/09 04:30:00;;;;;;;;;7.75;7.50;;;;;23.54;46.04;101769.84;5098176;27;45643;-55
2021/07/09 04:32:25;;;;;;;;;8.50;6.00;;;;;23.55;45.77;101771.56;5098368;27;45866;-48
2021/07/09 04:34:51;;;;;;;;;6.00;6.00;;;;;23.53;45.59;101778.75;5098484;27;45595;-48
2021/07/09 04:37:16;;;;;;;;;7.00;7.00;;;;;23.53;45.77;101782.25;5098120;27;46347;-47
2021/07/09 04:39:41;;;;;;;;;6.75;6.75;;;;;23.53;46.32;101781.41;5098119;27;45468;-48
2021/07/09 04:42:07;;;;;;;;;7.00;6.00;;;;;23.52;45.98;101783.19;5098502;27;45204;-48
2021/07/09 04:44:34;;;;;;;;;8.25;7.75;;;;;23.53;46.27;101781.41;5098354;27;45619;-48
2021/07/09 04:47:00;;;;;;;;;9.00;7.75;;;;;23.51;46.26;101780.63;5097958;27;45427;-57
2021/07/09 04:49:26;;;;;;;;;5.00;5.00;;;;;23.53;45.83;101784.88;5096744;27;45475;-50
2021/07/09 04:51:53;;;;;;;;;7.50;7.50;;;;;23.52;45.95;101787.63;5098042;27;45412;-48
2021/07/09 04:54:19;;;;;;;;;6.25;6.25;;;;;23.51;46.04;101780.63;5098350;27;45546;-47
2021/07/09 04:56:44;;;;;;;;;7.50;7.00;;;;;23.53;45.79;101789.34;5097824;27;45798;-49
2021/07/09 04:59:09;;;;;;;;;10.50;7.00;;;;;23.53;46.01;101778.75;5098189;27;45164;-48
2021/07/09 05:01:35;;;;;;;;;5.00;5.00;;;;;23.54;45.92;101783.09;5098108;27;45341;-54
2021/07/09 05:04:00;;;;;;;;;7.50;5.75;;;;;23.56;46.22;101783.84;5098111;27;45244;-47
2021/07/09 05:06:26;;;;;;;;;7.00;6.25;;;;;23.57;45.98;101782.94;5097677;27;46568;-48
2021/07/09 05:08:52;;;;;;;;;8.00;6.75;;;;;23.57;45.70;101780.28;5097804;27;45251;-50
2021/07/09 05:11:17;;;;;;;;;5.75;5.75;;;;;23.59;45.93;101789.00;5098053;27;45459;-51
2021/07/09 05:13:42;;;;;;;;;7.25;5.25;;;;;23.59;45.75;101789.84;5098593;27;45866;-54
2021/07/09 05:16:08;;;;;;;;;7.75;6.00;;;;;23.60;45.61;101788.06;5097765;27;46321;-49
2021/07/09 05:18:33;;;;;;;;;8.25;8.00;;;;;23.60;45.70;101788.06;5096292;27;45361;-48
2021/07/09 05:21:00;;;;;;;;;9.00;7.75;;;;;23.58;46.02;101797.88;5097669;27;45452;-49
2021/07/09 05:23:25;;;;;;;;;9.25;9.00;;;;;23.57;46.06;101793.50;5097920;27;45394;-54
2021/07/09 05:25:51;;;;;;;;;6.00;6.00;;;;;23.57;46.24;101791.75;5097332;27;45376;-56
2021/07/09 05:28:16;;;;;;;;;8.00;8.00;;;;;23.57;45.99;101796.16;5097571;27;45467;-52
2021/07/09 05:30:41;;;;;;;;;9.25;6.00;;;;;23.57;46.02;101801.44;5097775;27;45458;-48
2021/07/09 05:33:08;;;;;;;;;7.50;6.25;;;;;23.57;45.95;101801.44;5097798;27;45341;-51
2021/07/09 05:35:36;;;;;;;;;8.00;8.00;;;;;23.55;46.25;101798.03;5096081;27;47389;-58
2021/07/09 05:38:01;;;;;;;;;7.00;6.50;;;;;23.53;46.45;101800.75;5097293;27;46075;-56
2021/07/09 05:40:27;;;;;;;;;8.00;8.00;;;;;23.54;46.12;101801.59;5097609;27;45348;-57
2021/07/09 05:42:52;;;;;;;;;9.00;7.75;;;;;23.54;46.51;101801.59;5096262;27;45523;-54
2021/07/09 05:45:17;;;;;;;;;8.00;8.00;;;;;23.53;46.37;101798.13;5097168;27;45910;-56
2021/07/09 05:47:43;;;;;;;;;11.00;9.25;;;;;23.55;46.32;101803.31;5097054;27;45448;-56
2021/07/09 05:50:08;;;;;;;;;10.50;9.00;;;;;23.57;46.38;101806.75;5097327;27;45331;-57
2021/07/09 05:52:34;;;;;;;;;8.00;7.75;;;;;23.57;46.16;101807.63;5097458;27;46068;-57
2021/07/09 05:54:59;;;;;;;;;8.75;6.75;;;;;23.58;46.14;101808.47;5096926;27;46263;-57
2021/07/09 05:57:25;;;;;;;;;8.25;7.00;;;;;23.58;46.26;101806.69;5096926;27;45698;-49
2021/07/09 05:59:50;;;;;;;;;11.00;10.00;;;;;23.60;46.35;101803.94;5097158;27;45425;-49
2021/07/09 06:02:15;;;;;;;;;7.25;6.75;;;;;23.59;46.04;101804.88;5100105;27;45372;-54
2021/07/09 06:04:41;;;;;;;;;7.50;7.50;;;;;23.62;46.08;101810.00;5104131;27;47601;-57
2021/07/09 06:07:06;;;;;;;;;9.75;7.00;;;;;23.61;46.12;101809.13;5103653;27;45412;-57
2021/07/09 06:09:32;;;;;;;;;9.50;7.50;;;;;23.61;45.84;101800.38;5102678;27;45347;-57
2021/07/09 06:11:58;;;;;;;;;8.25;8.00;;;;;23.62;46.18;101810.00;5104044;27;45299;-57
2021/07/09 06:14:24;;;;;;;;;9.25;7.50;;;;;23.64;46.39;101813.44;5103645;27;46282;-57
2021/07/09 06:16:49;;;;;;;;;10.25;8.50;;;;;23.63;46.27;101811.72;5103679;27;45434;-56
2021/07/09 06:19:14;;;;;;;;;10.25;9.25;;;;;23.62;46.09;101815.31;5104114;27;45341;-49
2021/07/09 06:21:40;;;;;;;;;11.00;8.75;;;;;23.63;46.26;101817.03;5104083;27;45549;-50
2021/07/09 06:24:05;;;;;;;;;8.00;8.00;;;;;23.61;46.14;101806.50;5103680;27;45307;-49
2021/07/09 06:26:31;;;;;;;;;9.50;9.50;;;;;23.60;46.34;101801.28;5103433;27;45423;-49
2021/07/09 06:28:56;;;;;;;;;7.00;6.25;;;;;23.62;45.91;101812.66;5103570;27;45236;-58
2021/07/09 06:31:22;;;;;;;;;10.50;8.25;;;;;23.60;46.47;101811.88;5102399;27;45465;-49
2021/07/09 06:33:48;;;;;;;;;8.25;6.25;;;;;23.63;46.06;101819.66;5103372;27;46176;-48
2021/07/09 06:36:13;;;;;;;;;7.50;7.50;;;;;23.63;46.00;101819.66;5103574;27;45375;-48
2021/07/09 06:38:39;;;;;;;;;7.50;7.00;;;;;23.62;46.60;101828.53;5103367;27;45354;-48
2021/07/09 06:41:04;;;;;;;;;9.00;8.25;;;;;23.61;45.81;101817.09;5102357;27;45655;-47
2021/07/09 06:43:30;;;;;;;;;11.75;8.50;;;;;23.64;45.94;101821.38;5103186;27;45414;-48
2021/07/09 06:45:55;;;;;;;;;8.25;8.25;;;;;23.64;46.25;101824.03;5103160;27;45353;-48
2021/07/09 06:48:20;;;;;;;;;12.25;9.50;;;;;23.62;46.15;101828.53;5103466;27;45298;-53
2021/07/09 06:50:47;;;;;;;;;12.25;9.50;;;;;23.63;46.17;101835.53;5103788;27;45595;-47
2021/07/09 06:53:14;;;;;;;;;9.00;7.50;;;;;23.62;46.25;101825.91;5103342;27;45959;-47
2021/07/09 06:55:40;;;;;;;;;13.75;10.00;;;;;23.62;46.04;101821.44;5103032;27;45751;-48
2021/07/09 06:58:05;;;;;;;;;10.75;9.00;;;;;23.63;45.87;101825.81;5103110;27;45372;-48
2021/07/09 07:00:30;;;;;;;;;10.25;8.50;;;;;23.63;46.19;101832.91;5103481;27;45210;-48
2021/07/09 07:02:56;;;;;;;;;10.50;9.50;;;;;23.62;46.47;101821.44;5102867;27;46081;-47
2021/07/09 07:05:21;;;;;;;;;10.00;7.00;;;;;23.62;45.64;101831.19;5103019;27;45349;-51
2021/07/09 07:07:46;;;;;;;;;11.50;9.25;;;;;23.65;45.77;101831.00;5103430;27;45325;-47
2021/07/09 07:10:12;;;;;;;;;14.00;12.00;;;;;23.63;46.00;101827.59;5103205;27;45321;-57
2021/07/09 07:12:38;;;;;;;;;12.25;12.25;;;;;23.64;45.93;101834.63;5102754;27;45350;-56
2021/07/09 07:15:07;;;;;;;;;16.00;12.00;;;;;23.63;46.18;101832.91;5098358;27;45326;-47
2021/07/09 07:17:37;;;;;;;;;15.25;12.25;;;;;23.63;46.36;101833.75;5099853;27;45370;-58
2021/07/09 07:20:04;;;;;;;;;17.25;15.00;;;;;23.63;46.34;101848.78;5099716;27;45317;-48
2021/07/09 07:22:29;;;;;;;;;18.25;12.75;;;;;23.62;46.27;101834.66;5099411;27;47558;-48
2021/07/09 07:24:54;;;;;;;;;16.00;12.25;;;;;23.61;46.28;101832.13;5099544;27;45369;-49
2021/07/09 07:27:21;;;;;;;;;15.00;13.00;;;;;23.60;46.09;101833.91;5099362;27;45351;-49
2021/07/09 07:29:47;;;;;;;;;16.75;15.25;;;;;23.61;46.50;101834.75;5098487;27;45506;-48
2021/07/09 07:32:13;;;;;;;;;22.25;17.50;;;;;23.65;46.40;101838.09;5099168;27;46084;-49
2021/07/09 07:34:39;;;;;;;;;18.75;16.75;;;;;23.65;46.34;101836.28;5099123;27;45845;-53
2021/07/09 07:37:04;;;;;;;;;17.25;15.00;;;;;23.66;46.49;101842.47;5099271;27;45237;-52
2021/07/09 07:39:30;;;;;;;;;17.25;14.25;;;;;23.66;46.49;101835.34;5099342;27;45564;-53
2021/07/09 07:41:55;;;;;;;;;17.00;16.50;;;;;23.65;45.96;101831.00;5098917;27;45988;-54
2021/07/09 07:44:21;;;;;;;;;16.25;15.00;;;;;23.67;46.81;101834.44;5099164;27;45282;-53
2021/07/09 07:46:49;;;;;;;;;13.75;13.25;;;;;23.69;46.43;101842.31;5099274;27;45353;-54
2021/07/09 07:49:15;;;;;;;;;12.00;12.00;;;;;23.69;46.33;101837.84;5099289;27;45417;-58
2021/07/09 07:51:40;;;;;;;;;18.00;14.75;;;;;23.69;46.20;101837.84;5098938;27;45623;-58
2021/07/09 07:54:05;;;;;;;;;11.00;11.00;;;;;23.67;45.98;101831.78;5098923;27;45366;-52
2021/07/09 07:56:31;;;;;;;;;13.00;10.75;;;;;23.67;45.86;101836.22;5098991;27;45387;-53
2021/07/09 07:58:56;;;;;;;;;14.50;11.50;;;;;23.67;46.04;101837.06;5099118;27;45452;-52
2021/07/09 08:01:22;;;;;;;;;15.75;12.50;;;;;23.67;45.95;101834.44;5097428;27;46273;-49
2021/07/09 08:03:48;;;;;;;;;11.00;8.50;;;;;23.67;45.72;101834.44;5099131;27;45291;-49
2021/07/09 08:06:13;;;;;;;;;14.75;12.25;;;;;23.68;45.89;101838.78;5098872;27;45389;-49
2021/07/09 08:08:39;;;;;;;;;11.75;10.50;;;;;23.67;46.06;101834.44;5132104;27;45547;-53
2021/07/09 08:11:05;;;;;;;;;16.25;13.00;;;;;23.68;45.86;101830.84;5098469;27;46073;-49
2021/07/09 08:13:30;;;;;;;;;11.25;11.25;;;;;23.69;46.14;101832.56;5098561;27;45205;-55
2021/07/09 08:15:56;;;;;;;;;14.25;10.50;;;;;23.72;46.30;101836.81;5098732;27;45286;-50
2021/07/09 08:18:22;;;;;;;;;12.00;9.75;;;;;23.71;46.10;101830.69;5099190;27;45531;-51
2021/07/09 08:20:47;;;;;;;;;11.00;11.00;;;;;23.74;45.78;101827.88;5098720;27;45987;-53
2021/07/09 08:23:12;;;;;;;;;10.50;9.75;;;;;23.75;46.08;101829.59;5098577;27;45271;-49
2021/07/09 08:25:38;;;;;;;;;9.25;9.00;;;;;23.77;45.81;101830.34;5097718;27;45467;-57
2021/07/09 08:28:03;;;;;;;;;9.00;8.25;;;;;23.77;46.13;101830.34;5098619;27;45591;-58
2021/07/09 08:30:29;;;;;;;;;9.25;9.00;;;;;23.80;45.97;101817.91;5098234;27;45503;-59
2021/07/09 08:32:54;;;;;;;;;11.75;8.50;;;;;23.80;46.03;101828.47;5096918;27;45921;-50
2021/07/09 08:35:20;;;;;;;;;8.25;8.25;;;;;23.81;45.87;101822.25;5098598;27;45420;-50
2021/07/09 08:37:45;;;;;;;;;12.00;9.75;;;;;23.82;45.63;101818.66;5097996;27;45607;-52
2021/07/09 08:40:11;;;;;;;;;13.50;9.50;;;;;23.81;45.71;101817.84;5097636;27;46016;-51
2021/07/09 08:42:37;;;;;;;;;8.00;8.00;;;;;23.83;45.32;101815.09;5097657;27;46111;-50
2021/07/09 08:45:05;;;;;;;;;11.75;9.00;;;;;23.82;45.31;101808.94;5097976;27;45287;-52
2021/07/09 08:47:32;;;;;;;;;9.75;9.25;;;;;23.83;45.32;101813.28;5098305;27;45259;-52
2021/07/09 08:50:07;;;;;;;;;8.00;7.50;;;;;23.78;45.25;101805.59;5098031;27;46163;-50
2021/07/09 08:52:36;;;;;;;;;11.50;10.50;;;;;23.78;45.01;101810.03;5098015;27;45156;-50
2021/07/09 08:55:04;;;;;;;;;8.00;8.00;;;;;23.77;45.05;101809.19;5098186;27;45384;-50
2021/07/09 08:57:29;;;;;;;;;11.00;8.75;;;;;23.77;45.09;101806.53;5098195;27;45217;-54
2021/07/09 08:59:55;;;;;;;;;8.50;8.50;;;;;23.76;45.04;101807.47;5097818;27;45250;-50
2021/07/09 09:02:26;;;;;;;;;8.75;8.25;;;;;23.75;45.23;101808.44;5098381;27;45225;-52
2021/07/09 09:04:52;;;;;;;;;15.25;7.75;;;;;23.76;44.74;101803.97;5098223;27;45464;-54
2021/07/09 09:07:18;;;;;;;;;8.75;8.75;;;;;23.75;45.26;101811.06;5098129;27;45308;-50
2021/07/09 09:09:43;;;;;;;;;9.50;7.25;;;;;23.75;44.82;101808.44;5097848;27;46421;-54
2021/07/09 09:12:17;;;;;;;;;8.50;8.50;;;;;23.75;44.63;101794.31;5098037;27;45209;-56
2021/07/09 09:14:44;;;;;;;;;11.25;9.00;;;;;23.73;44.77;101797.06;5098038;27;45342;-59
2021/07/09 09:17:42;;;;;;;;;11.00;10.00;;;;;23.78;45.06;101802.09;5097920;27;45472;-56
2021/07/09 09:20:11;;;;;;;;;9.25;8.25;;;;;23.76;45.02;101804.81;5074154;27;46018;-60
2021/07/09 09:22:57;;;;;;;;;9.50;8.00;;;;;23.78;45.34;101804.75;5097716;27;45401;-58
2021/07/09 09:25:25;;;;;;;;;9.25;8.00;;;;;23.79;44.80;101809.13;5097359;27;45448;-58
2021/07/09 09:28:05;;;;;;;;;8.25;7.25;;;;;23.78;45.21;101805.59;5098189;27;45372;-56
2021/07/09 09:30:32;;;;;;;;;9.25;8.50;;;;;23.77;44.75;101806.53;5097440;27;46256;-59
2021/07/09 09:33:01;;;;;;;;;8.50;7.50;;;;;23.77;44.81;101803.03;5097515;27;45456;-58
2021/07/09 09:35:30;;;;;;;;;10.50;10.50;;;;;23.76;45.21;101812.75;5097418;27;45207;-59
2021/07/09 09:37:58;;;;;;;;;12.25;9.25;;;;;23.75;44.74;101808.44;5096731;27;45605;-51
2021/07/09 09:40:26;;;;;;;;;8.25;8.25;;;;;23.75;44.40;101811.06;5097742;27;45471;-54
2021/07/09 09:42:51;;;;;;;;;9.50;8.00;;;;;23.71;44.60;101798.94;5096090;27;45524;-51
2021/07/09 09:45:24;;;;;;;;;10.00;8.75;;;;;23.73;44.24;101806.78;5096177;27;45360;-55
2021/07/09 09:47:50;;;;;;;;;8.25;7.25;;;;;23.72;44.32;101803.28;5097650;27;45651;-56
2021/07/09 09:50:21;;;;;;;;;11.00;9.00;;;;;23.70;44.58;101802.50;5097037;27;45369;-51
2021/07/09 09:52:52;;;;;;;;;8.75;8.75;;;;;23.70;44.54;101805.16;5097115;27;45835;-53
2021/07/09 09:55:22;;;;;;;;;9.75;8.75;;;;;23.72;44.44;101810.34;5097273;27;45288;-50
2021/07/09 09:57:53;;;;;;;;;7.00;7.00;;;;;23.71;44.68;101801.56;5096019;27;45427;-53
2021/07/09 10:00:21;;;;;;;;;4.75;3.00;;;;;23.73;44.64;101806.78;5097112;27;46382;-52
2021/07/09 10:02:48;;;;;;;;;8.25;8.00;;;;;23.72;44.60;101800.66;5097210;27;46160;-52
2021/07/09 10:05:14;;;;;;;;;9.00;9.00;;;;;23.70;44.42;101802.50;5097129;27;45423;-54
2021/07/09 10:07:40;;;;;;;;;8.50;8.50;;;;;23.69;44.47;101797.31;5097119;27;45256;-53
2021/07/09 10:10:06;;;;;;;;;8.75;8.00;;;;;23.69;44.62;101797.31;5096798;27;45354;-52
2021/07/09 10:12:33;;;;;;;;;7.75;6.25;;;;;23.65;44.97;101798.41;5097023;27;45304;-58
2021/07/09 10:14:59;;;;;;;;;6.75;6.75;;;;;23.63;44.70;101798.50;5097091;27;45447;-59
2021/07/09 10:17:27;;;;;;;;;7.00;7.00;;;;;23.64;44.50;101797.56;5097602;27;45397;-56
2021/07/09 10:19:54;;;;;;;;;6.50;6.00;;;;;23.66;44.43;101794.81;5096985;27;46695;-57
2021/07/09 10:22:21;;;;;;;;;8.75;7.75;;;;;23.65;44.96;101788.66;5096804;27;45265;-56
2021/07/09 10:24:50;;;;;;;;;7.50;7.50;;;;;23.69;44.56;101798.16;5096950;27;45398;-56
2021/07/09 10:27:22;;;;;;;;;10.00;9.00;;;;;23.71;44.49;101793.63;5096964;27;45444;-58
2021/07/09 10:29:50;;;;;;;;;7.00;7.00;;;;;23.71;44.20;101793.63;5096847;27;45311;-59
2021/07/09 10:32:38;;;;;;;;;7.00;7.00;;;;;23.73;44.83;101791.78;5096525;27;45427;-59
2021/07/09 10:35:08;;;;;;;;;8.75;6.75;;;;;23.75;44.81;101791.66;5096896;27;45238;-58
2021/07/09 10:37:33;;;;;;;;;9.00;7.50;;;;;23.73;44.88;101781.19;5096954;27;45482;-59
2021/07/09 10:40:20;;;;;;;;;9.50;7.00;;;;;23.77;44.77;101789.81;5095035;27;45988;-54
2021/07/09 10:42:52;;;;;;;;;7.75;6.75;;;;;23.76;44.42;101785.44;5096479;27;45868;-59
2021/07/09 10:45:18;;;;;;;;;8.00;6.00;;;;;23.78;44.67;101781.78;5096753;27;45213;-59
2021/07/09 10:48:14;;;;;;;;;5.33;5.33;;;;;23.82;44.74;101784.25;5096960;27;45465;-59
2021/07/09 10:50:59;;;;;;;;;8.00;7.25;;;;;23.82;44.62;101785.09;5099760;27;45387;-55
2021/07/09 10:53:25;;;;;;;;;7.50;7.50;;;;;23.82;44.84;101778.97;5100070;27;45310;-50
2021/07/09 10:56:08;;;;;;;;;7.50;6.75;;;;;23.86;44.78;101785.81;5100014;27;45413;-49
2021/07/09 10:58:45;;;;;;;;;6.25;6.25;;;;;23.87;45.13;101782.19;5099998;27;45444;-50
2021/07/09 11:01:22;;;;;;;;;9.00;7.25;;;;;23.89;44.95;101780.31;5099746;27;45681;-49
2021/07/09 11:03:53;;;;;;;;;8.00;8.00;;;;;23.90;44.54;101769.66;5130251;27;46018;-47
2021/07/09 11:06:36;;;;;;;;;7.00;7.00;;;;;23.89;44.54;101769.72;5077585;28;45500;-48
2021/07/09 11:09:07;;;;;;;;;8.50;6.75;;;;;23.90;44.82;101758.22;5079374;28;45325;-50
2021/07/09 11:11:47;;;;;;;;;9.75;8.25;;;;;23.92;44.79;101761.63;5078583;27;46549;-49
2021/07/09 11:14:18;;;;;;;;;7.00;7.00;;;;;23.93;44.60;101761.53;5079106;28;45450;-55
2021/07/09 11:16:50;;;;;;;;;6.50;6.50;;;;;23.94;44.81;101757.94;5078986;28;45276;-54
2021/07/09 11:19:22;;;;;;;;;6.25;6.25;;;;;23.97;44.69;101756.13;5079247;28;45476;-49
2021/07/09 11:21:53;;;;;;;;;8.50;7.00;;;;;23.97;44.46;101750.81;5078710;28;47214;-57